Terminal Aerodrome Forecast
Issued by NWS Sterling, VA

Current Version | Previous Version | Text Only | Print | Product List | Glossary Off
Versions: 1 2 3 4 5 6 7 8 9 10 11 12 13 14 15 16 17 18 19 20 21

069
FTUS41 KLWX 171201 AAA
TAFMRB
TAF AMD
KMRB 171201Z 1712/1812 00000KT 6SM BR FEW200
     FM171300 00000KT P6SM SCT150
     FM171800 16005KT P6SM VCTS BKN050CB
     FM180000 VRB03KT P6SM BKN045=

USA.gov is the U.S. government's official web portal to all federal, state and local government web resources and services.